Terminal Aerodrome Forecast
Issued by NWS

Home | Current Version | Previous Version | Text Only | Print | Product List | Glossary On
Versions: 1 2 3 4 5 6 7 8 9 10 11 12 13 14 15 16 17 18 19
000
FTUS43 KTOP 182300
TAFFOE
TAF
KFOE 182320Z 1900/1924 11009KT P6SM BKN090
     FM190400 14006KT 6SM -TSRA BR BKN022CB
     FM190800 09003KT 4SM -SHRA VCTS SCT008 BKN018CB
     FM191500 33006KT P6SM VCSH OVC040
     FM192100 31014G24KT P6SM -SHRA VCTS OVC030CB=

USA.gov is the U.S. government's official web portal to all federal, state and local government web resources and services.